createdAt,value
2022-11-24T00:01:26.887Z,11.65
2022-11-24T00:04:01.125Z,7.85
2022-11-24T00:06:28.901Z,10.95
2022-11-24T00:08:56.311Z,14.35
2022-11-24T00:11:25.877Z,16.33
2022-11-24T00:13:53.160Z,8.55
2022-11-24T00:16:23.361Z,12.23
2022-11-24T00:18:52.418Z,9.43
2022-11-24T00:21:20.495Z,8.73
2022-11-24T00:23:48.698Z,8.20
2022-11-24T00:26:19.481Z,6.47
2022-11-24T00:28:47.845Z,15.27
2022-11-24T00:31:25.507Z,12.07
2022-11-24T00:33:55.200Z,10.10
2022-11-24T00:36:23.624Z,9.50
2022-11-24T00:38:59.106Z,6.78
2022-11-24T00:41:27.196Z,8.13
2022-11-24T00:43:54.872Z,10.52
2022-11-24T00:46:22.870Z,10.95
2022-11-24T00:48:50.256Z,14.68
2022-11-24T00:51:21.699Z,12.35
2022-11-24T00:53:48.777Z,10.05
2022-11-24T00:56:16.023Z,9.20
2022-11-24T00:58:42.909Z,14.10
2022-11-24T01:01:13.438Z,7.97
2022-11-24T01:03:40.515Z,12.05
2022-11-24T01:06:19.175Z,11.98
2022-11-24T01:08:46.853Z,11.00
2022-11-24T01:11:15.212Z,16.42
2022-11-24T01:13:43.547Z,13.50
2022-11-24T01:16:24.695Z,10.60
2022-11-24T01:18:52.294Z,11.88
2022-11-24T01:21:19.365Z,11.70
2022-11-24T01:23:46.754Z,8.25
2022-11-24T01:26:16.896Z,15.60
2022-11-24T01:28:47.131Z,10.93
2022-11-24T01:31:15.495Z,14.60
2022-11-24T01:33:42.648Z,7.38
2022-11-24T01:36:09.444Z,13.90
2022-11-24T01:38:36.208Z,12.68
2022-11-24T01:41:11.498Z,10.50
2022-11-24T01:43:38.910Z,11.85
2022-11-24T01:46:26.947Z,10.50
2022-11-24T01:49:05.723Z,6.60
2022-11-24T01:51:36.169Z,14.48
2022-11-24T01:54:11.050Z,12.48
2022-11-24T01:56:40.745Z,15.68
2022-11-24T01:59:11.379Z,17.05
2022-11-24T02:01:38.236Z,16.87
2022-11-24T02:04:10.978Z,22.02
2022-11-24T02:06:40.323Z,13.20
2022-11-24T02:09:24.212Z,14.40
2022-11-24T02:11:52.171Z,14.77
2022-11-24T02:14:21.077Z,22.73
2022-11-24T02:16:53.347Z,15.43
2022-11-24T02:19:35.144Z,19.55
2022-11-24T02:22:03.333Z,17.58
2022-11-24T02:24:43.051Z,16.85
2022-11-24T02:27:11.123Z,15.75
2022-11-24T02:29:38.645Z,15.60
2022-11-24T02:32:09.602Z,20.35
2022-11-24T02:34:36.838Z,17.55
2022-11-24T02:37:03.687Z,10.25
2022-11-24T02:39:30.419Z,16.52
2022-11-24T02:42:03.201Z,13.95
2022-11-24T02:44:36.000Z,17.05
2022-11-24T02:47:11.488Z,18.90
2022-11-24T02:49:38.921Z,18.33
2022-11-24T02:52:06.518Z,16.02
2022-11-24T02:54:33.730Z,17.77
2022-11-24T02:57:00.851Z,20.85
2022-11-24T02:59:27.575Z,23.83
2022-11-24T03:01:54.485Z,23.48
2022-11-24T03:04:21.347Z,16.15
2022-11-24T03:06:48.117Z,21.48
2022-11-24T03:09:14.982Z,24.98
2022-11-24T03:11:41.893Z,31.60
2022-11-24T03:14:08.900Z,19.92
2022-11-24T03:16:35.938Z,25.20
2022-11-24T03:19:03.179Z,16.30
2022-11-24T03:21:30.009Z,20.85
2022-11-24T03:23:56.832Z,24.67
2022-11-24T03:26:25.524Z,24.17
2022-11-24T03:28:57.422Z,20.50
2022-11-24T03:31:24.848Z,20.67
2022-11-24T03:33:51.735Z,23.08
2022-11-24T03:36:18.657Z,20.08
2022-11-24T03:38:45.421Z,23.15
2022-11-24T03:41:12.357Z,33.65
2022-11-24T03:43:43.519Z,26.85
2022-11-24T03:46:11.401Z,20.38
2022-11-24T03:48:38.250Z,22.63
2022-11-24T03:51:05.231Z,19.98
2022-11-24T03:53:33.805Z,13.55
2022-11-24T03:56:02.118Z,23.20
2022-11-24T03:58:29.841Z,21.30
2022-11-24T04:00:57.127Z,20.08
2022-11-24T04:03:24.538Z,21.88
2022-11-24T04:05:51.933Z,20.23
2022-11-24T04:08:19.106Z,22.88
2022-11-24T04:10:50.754Z,21.83
2022-11-24T04:13:19.254Z,19.30
2022-11-24T04:15:46.421Z,21.17
2022-11-24T04:18:13.930Z,19.38
2022-11-24T04:20:42.264Z,22.95
2022-11-24T04:23:10.411Z,23.50
2022-11-24T04:25:37.611Z,22.83
2022-11-24T04:28:04.665Z,22.88
2022-11-24T04:30:31.450Z,26.50
2022-11-24T04:32:58.261Z,23.23
2022-11-24T04:35:25.142Z,20.88
2022-11-24T04:37:51.899Z,20.98
2022-11-24T04:40:19.217Z,27.35
2022-11-24T04:42:54.607Z,19.27
2022-11-24T04:45:22.061Z,24.77
2022-11-24T04:47:48.841Z,24.83
2022-11-24T04:50:16.094Z,25.70
2022-11-24T04:52:43.733Z,23.95
2022-11-24T04:55:10.776Z,23.33
2022-11-24T04:57:37.602Z,17.50
2022-11-24T05:00:04.793Z,16.95
2022-11-24T05:02:31.529Z,19.92
2022-11-24T05:04:58.266Z,19.85
2022-11-24T05:07:25.118Z,24.80
2022-11-24T05:10:10.488Z,24.52
2022-11-24T05:12:37.287Z,14.57
2022-11-24T05:15:05.495Z,18.92
2022-11-24T05:17:34.813Z,16.35
2022-11-24T05:20:01.674Z,14.38
2022-11-24T05:22:29.325Z,19.70
2022-11-24T05:24:56.189Z,13.15
2022-11-24T05:27:23.210Z,12.43
2022-11-24T05:29:50.061Z,19.27
2022-11-24T05:32:17.028Z,21.40
2022-11-24T05:34:43.738Z,20.00
2022-11-24T05:37:10.548Z,15.13
2022-11-24T05:39:37.351Z,18.38
2022-11-24T05:42:28.166Z,22.90
2022-11-24T05:44:55.273Z,13.03
2022-11-24T05:47:22.216Z,18.90
2022-11-24T05:49:49.024Z,22.92
2022-11-24T05:52:16.708Z,15.98
2022-11-24T05:54:43.526Z,16.85
2022-11-24T05:57:10.291Z,18.65
2022-11-24T05:59:37.156Z,16.55
2022-11-24T06:02:04.185Z,20.00
2022-11-24T06:04:31.928Z,16.45
2022-11-24T06:06:58.966Z,17.77
2022-11-24T06:09:25.714Z,11.68
2022-11-24T06:11:52.490Z,9.27
2022-11-24T06:14:19.270Z,11.00
2022-11-24T06:16:46.241Z,17.08
2022-11-24T06:19:13.363Z,20.75
2022-11-24T06:21:40.138Z,19.70
2022-11-24T06:24:07.387Z,24.63
2022-11-24T06:26:34.348Z,27.38
2022-11-24T06:29:01.522Z,21.65
2022-11-24T06:31:28.329Z,13.40
2022-11-24T06:33:55.079Z,17.98
2022-11-24T06:36:21.906Z,26.00
2022-11-24T06:38:48.647Z,26.13
2022-11-24T06:41:16.710Z,23.92
2022-11-24T06:43:43.859Z,21.67
2022-11-24T06:46:11.712Z,15.95
2022-11-24T06:48:39.138Z,17.20
2022-11-24T06:51:08.542Z,14.30
2022-11-24T06:53:37.896Z,14.43
2022-11-24T06:56:12.093Z,16.13
2022-11-24T06:58:44.695Z,16.00
2022-11-24T07:01:23.250Z,9.38
2022-11-24T07:03:51.510Z,15.68
2022-11-24T07:06:19.044Z,11.43
2022-11-24T07:08:46.425Z,11.32
2022-11-24T07:11:20.775Z,11.85
2022-11-24T07:13:48.356Z,6.75
2022-11-24T07:16:16.432Z,7.40
2022-11-24T07:18:44.657Z,6.57
2022-11-24T07:21:11.573Z,5.65
2022-11-24T07:23:38.482Z,6.45
2022-11-24T07:26:07.088Z,5.35
2022-11-24T07:28:34.849Z,5.63
2022-11-24T07:31:12.915Z,7.28
2022-11-24T07:33:40.401Z,8.40
2022-11-24T07:36:08.474Z,6.97
2022-11-24T07:38:36.373Z,7.28
2022-11-24T07:41:08.470Z,6.00
2022-11-24T07:43:36.720Z,6.50
2022-11-24T07:46:04.872Z,8.82
2022-11-24T07:48:32.294Z,5.25
2022-11-24T07:51:00.569Z,6.20
2022-11-24T07:53:27.759Z,7.95
2022-11-24T07:55:56.437Z,12.45
2022-11-24T07:58:25.529Z,13.25
2022-11-24T08:00:56.337Z,16.70
2022-11-24T08:03:23.984Z,13.90
2022-11-24T08:08:46.195Z,15.45
2022-11-24T08:11:15.595Z,14.48
2022-11-24T08:13:43.081Z,13.18
2022-11-24T08:16:15.536Z,12.05
2022-11-24T08:18:43.192Z,6.97
2022-11-24T08:21:14.223Z,12.38
2022-11-24T08:23:42.097Z,17.05
2022-11-24T08:26:13.948Z,9.57
2022-11-24T08:28:41.092Z,7.30
2022-11-24T08:31:11.043Z,13.30
2022-11-24T08:33:38.177Z,12.10
2022-11-24T08:36:10.564Z,12.95
2022-11-24T08:38:37.899Z,12.60
2022-11-24T08:41:13.299Z,13.02
2022-11-24T08:43:40.878Z,14.65
2022-11-24T08:46:13.813Z,15.10
2022-11-24T08:48:41.851Z,14.43
2022-11-24T08:51:14.025Z,13.38
2022-11-24T08:53:41.424Z,10.18
2022-11-24T08:56:10.631Z,12.13
2022-11-24T08:58:38.313Z,17.25
2022-11-24T09:01:12.675Z,12.07
2022-11-24T09:03:43.560Z,16.05
2022-11-24T09:06:16.381Z,8.00
2022-11-24T09:08:43.140Z,18.00
2022-11-24T09:11:13.314Z,14.75
2022-11-24T09:13:41.026Z,14.77
2022-11-24T09:16:11.008Z,12.80
2022-11-24T09:18:38.114Z,9.13
2022-11-24T09:21:20.375Z,10.60
2022-11-24T09:23:49.218Z,13.55
2022-11-24T09:26:19.340Z,22.38
2022-11-24T09:28:47.159Z,14.20
2022-11-24T09:31:16.334Z,10.30
2022-11-24T09:33:43.250Z,13.48
2022-11-24T09:36:10.426Z,8.18
2022-11-24T09:38:37.550Z,7.65
2022-11-24T09:41:21.717Z,12.02
2022-11-24T09:44:10.182Z,11.82
2022-11-24T09:46:56.934Z,13.57
2022-11-24T09:49:54.771Z,15.63
2022-11-24T09:52:46.494Z,11.82
2022-11-24T09:55:42.681Z,7.50
2022-11-24T09:58:18.752Z,12.63
2022-11-24T10:00:48.781Z,9.68
2022-11-24T10:03:20.592Z,9.65
2022-11-24T10:05:50.893Z,6.65
2022-11-24T10:08:39.753Z,10.88
2022-11-24T10:11:14.209Z,11.07
2022-11-24T10:13:53.105Z,8.95
2022-11-24T10:16:53.779Z,13.18
2022-11-24T10:19:36.373Z,7.97
2022-11-24T10:22:12.890Z,8.73
2022-11-24T10:24:48.467Z,9.13
2022-11-24T10:27:15.383Z,14.23
2022-11-24T10:29:43.300Z,14.68
2022-11-24T10:32:30.340Z,9.90
2022-11-24T10:35:03.081Z,10.25
2022-11-24T10:37:40.806Z,12.13
2022-11-24T10:40:40.966Z,12.18
2022-11-24T10:43:11.092Z,11.90
2022-11-24T10:45:39.544Z,7.90
2022-11-24T10:48:20.708Z,13.38
2022-11-24T10:50:47.469Z,14.63
2022-11-24T10:53:30.504Z,8.73
2022-11-24T10:55:59.838Z,12.35
2022-11-24T10:58:37.900Z,13.75
2022-11-24T11:01:13.912Z,12.65
2022-11-24T11:03:55.412Z,14.30
2022-11-24T11:06:27.475Z,13.75
2022-11-24T11:09:06.385Z,12.65
2022-11-24T11:11:34.650Z,11.48
2022-11-24T11:14:04.843Z,10.10
2022-11-24T11:16:38.020Z,13.32
2022-11-24T11:19:47.863Z,11.35
2022-11-24T11:22:12.606Z,6.55
2022-11-24T11:24:40.890Z,11.05
2022-11-24T11:27:21.179Z,7.35
2022-11-24T11:35:27.194Z,8.63
2022-11-24T11:40:28.810Z,7.60
2022-11-24T11:43:06.952Z,17.92
2022-11-24T11:45:41.848Z,11.10
2022-11-24T11:48:15.378Z,16.98
2022-11-24T11:53:48.606Z,15.18
2022-11-24T11:56:40.481Z,12.32
2022-11-24T11:59:51.602Z,16.90
2022-11-24T12:02:48.592Z,18.60
2022-11-24T12:05:44.360Z,19.27
2022-11-24T12:08:21.075Z,20.67
2022-11-24T12:10:54.293Z,22.85
2022-11-24T12:13:48.166Z,21.55
2022-11-24T12:16:53.288Z,21.65
2022-11-24T12:19:45.958Z,22.88
2022-11-24T12:22:35.882Z,21.75
2022-11-24T12:25:20.976Z,14.68
2022-11-24T12:28:21.726Z,14.93
2022-11-24T12:31:02.101Z,9.35
2022-11-24T12:33:53.232Z,20.05
2022-11-24T12:36:22.051Z,18.70
2022-11-24T12:38:54.662Z,21.85
2022-11-24T12:41:56.815Z,28.73
2022-11-24T12:44:55.359Z,18.30
2022-11-24T12:47:53.200Z,26.25
2022-11-24T12:50:24.046Z,29.90
2022-11-24T12:52:58.815Z,23.05
2022-11-24T12:55:28.135Z,26.42
2022-11-24T12:58:26.072Z,26.40
2022-11-24T13:00:58.768Z,22.00
2022-11-24T13:03:37.508Z,21.40
2022-11-24T13:06:12.983Z,31.40
2022-11-24T13:08:40.427Z,28.23
2022-11-24T13:11:22.220Z,23.55
2022-11-24T13:14:14.074Z,25.50
2022-11-24T13:19:42.559Z,30.63
2022-11-24T13:22:09.496Z,30.33
2022-11-24T13:24:40.556Z,20.33
2022-11-24T13:27:16.416Z,19.42
2022-11-24T13:29:47.976Z,18.45
2022-11-24T13:32:14.698Z,15.88
2022-11-24T13:34:42.910Z,21.88
2022-11-24T13:37:31.311Z,24.58
2022-11-24T13:40:14.452Z,23.08
2022-11-24T13:43:07.766Z,24.30
2022-11-24T13:45:41.128Z,24.02
2022-11-24T13:48:20.694Z,19.67
2022-11-24T13:50:51.148Z,19.55
2022-11-24T13:53:44.098Z,22.23
2022-11-24T13:56:13.817Z,22.65
2022-11-24T13:58:52.555Z,16.35
2022-11-24T14:01:25.620Z,22.67
2022-11-24T14:04:29.324Z,19.42
2022-11-24T14:07:06.977Z,21.10
2022-11-24T14:09:51.892Z,16.60
2022-11-24T14:12:21.119Z,20.20
2022-11-24T14:14:49.981Z,13.80
2022-11-24T14:17:27.850Z,30.65
2022-11-24T14:19:56.934Z,25.85
2022-11-24T14:22:27.874Z,17.40
2022-11-24T14:24:59.951Z,21.98
2022-11-24T14:27:30.827Z,27.80
2022-11-24T14:30:04.134Z,24.65
2022-11-24T14:32:31.081Z,27.13
2022-11-24T14:34:58.024Z,29.13
2022-11-24T14:37:24.923Z,29.00
2022-11-24T14:39:51.850Z,25.85
2022-11-24T14:42:24.627Z,20.77
2022-11-24T14:44:56.729Z,18.23
2022-11-24T14:47:31.664Z,30.65
2022-11-24T14:50:16.721Z,21.17
2022-11-24T14:52:58.138Z,22.23
2022-11-24T14:55:28.101Z,16.38
2022-11-24T14:57:55.404Z,17.85
2022-11-24T15:00:24.894Z,19.50
2022-11-24T15:03:07.329Z,24.17
2022-11-24T15:05:54.976Z,11.90
2022-11-24T15:08:24.232Z,11.75
2022-11-24T15:11:03.169Z,14.50
2022-11-24T15:13:37.237Z,12.18
2022-11-24T15:16:16.002Z,14.10
2022-11-24T15:18:45.989Z,16.38
2022-11-24T15:21:18.899Z,8.85
2022-11-24T15:24:13.501Z,7.45
2022-11-24T15:26:42.189Z,14.98
2022-11-24T15:29:10.687Z,6.72
2022-11-24T15:31:38.660Z,10.75
2022-11-24T15:34:05.911Z,13.43
2022-11-24T15:36:33.354Z,9.10
2022-11-24T15:39:00.063Z,10.18
2022-11-24T15:41:32.127Z,12.93
2022-11-24T15:43:59.486Z,15.00
2022-11-24T15:46:27.924Z,11.75
2022-11-24T15:48:55.275Z,9.95
2022-11-24T15:51:25.479Z,12.18
2022-11-24T15:53:58.867Z,7.88
2022-11-24T15:56:34.083Z,5.90
2022-11-24T15:59:01.683Z,6.85
2022-11-24T16:01:32.848Z,9.75
2022-11-24T16:04:00.682Z,12.88
2022-11-24T16:06:27.515Z,10.20
2022-11-24T16:08:54.807Z,15.90
2022-11-24T16:11:22.426Z,9.13
2022-11-24T16:13:52.919Z,6.63
2022-11-24T16:16:21.637Z,8.10
2022-11-24T16:18:48.560Z,6.78
2022-11-24T16:21:15.409Z,7.25
2022-11-24T16:23:42.287Z,9.18
2022-11-24T16:26:10.331Z,7.18
2022-11-24T16:28:37.010Z,7.13
2022-11-24T16:31:04.046Z,5.15
2022-11-24T16:33:32.568Z,6.43
2022-11-24T16:35:59.359Z,6.22
2022-11-24T16:38:26.208Z,6.90
2022-11-24T16:40:59.240Z,10.88
2022-11-24T16:43:28.399Z,6.10
2022-11-24T16:46:18.631Z,4.35
2022-11-24T16:48:46.991Z,8.45
2022-11-24T16:51:14.720Z,9.80
2022-11-24T16:53:41.519Z,7.38
2022-11-24T16:56:09.530Z,6.35
2022-11-24T16:58:40.874Z,10.98
2022-11-24T17:03:38.740Z,7.90
2022-11-24T17:06:08.374Z,6.80
2022-11-24T17:08:36.790Z,7.35
2022-11-24T17:11:17.218Z,11.63
2022-11-24T17:13:45.797Z,6.75
2022-11-24T17:16:14.943Z,7.65
2022-11-24T17:18:42.096Z,10.38
2022-11-24T17:21:15.781Z,6.78
2022-11-24T17:23:42.775Z,9.10
2022-11-24T17:26:14.514Z,7.38
2022-11-24T17:28:41.961Z,6.03
2022-11-24T17:31:29.915Z,6.97
2022-11-24T17:33:58.396Z,6.60
2022-11-24T17:36:26.153Z,6.25
2022-11-24T17:38:53.294Z,5.40
2022-11-24T17:41:20.936Z,2.40
2022-11-24T17:43:56.060Z,8.57
2022-11-24T17:46:26.848Z,4.28
2022-11-24T17:48:54.444Z,8.40
2022-11-24T17:51:23.501Z,2.15
2022-11-24T17:53:52.326Z,6.10
2022-11-24T17:56:24.591Z,2.53
2022-11-24T17:58:59.235Z,5.97
2022-11-24T18:01:28.737Z,4.63
2022-11-24T18:03:55.825Z,6.45
2022-11-24T18:06:26.179Z,2.35
2022-11-24T18:08:54.333Z,6.72
2022-11-24T18:11:30.430Z,4.78
2022-11-24T18:14:01.704Z,6.38
2022-11-24T18:16:31.253Z,3.97
2022-11-24T18:19:09.955Z,7.90
2022-11-24T18:21:41.411Z,7.78
2022-11-24T18:26:37.351Z,6.15
2022-11-24T18:29:04.931Z,4.15
2022-11-24T18:31:32.442Z,5.05
2022-11-24T18:33:59.812Z,8.65
2022-11-24T18:36:30.341Z,6.55
2022-11-24T18:39:04.282Z,9.40
2022-11-24T18:41:31.963Z,9.38
2022-11-24T18:44:02.417Z,8.65
2022-11-24T18:46:29.366Z,7.35
2022-11-24T18:48:56.196Z,5.40
2022-11-24T18:51:23.823Z,11.18
2022-11-24T18:53:54.657Z,8.43
2022-11-24T18:56:21.451Z,6.95
2022-11-24T18:58:48.276Z,6.63
2022-11-24T19:01:20.371Z,8.02
2022-11-24T19:03:49.586Z,5.57
2022-11-24T19:06:24.806Z,9.00
2022-11-24T19:08:54.445Z,6.82
2022-11-24T19:11:28.358Z,6.68
2022-11-24T19:13:56.577Z,8.15
2022-11-24T19:16:24.275Z,8.07
2022-11-24T19:18:54.006Z,4.35
2022-11-24T19:21:22.273Z,6.78
2022-11-24T19:23:49.816Z,2.88
2022-11-24T19:26:16.789Z,7.35
2022-11-24T19:28:43.893Z,5.10
2022-11-24T19:31:12.915Z,4.22
2022-11-24T19:33:40.364Z,6.63
2022-11-24T19:36:10.886Z,6.03
2022-11-24T19:38:38.027Z,4.03
2022-11-24T19:41:10.648Z,2.00
2022-11-24T19:43:37.867Z,3.63
2022-11-24T19:46:10.011Z,4.70
2022-11-24T19:48:39.122Z,5.57
2022-11-24T19:51:08.541Z,4.88
2022-11-24T19:53:36.204Z,8.48
2022-11-24T19:56:11.296Z,3.28
2022-11-24T19:58:38.665Z,4.57
2022-11-24T20:01:10.451Z,3.35
2022-11-24T20:03:38.417Z,2.83
2022-11-24T20:06:06.677Z,2.72
2022-11-24T20:08:35.382Z,7.35
2022-11-24T20:11:14.071Z,4.20
2022-11-24T20:13:42.678Z,4.60
2022-11-24T20:16:12.376Z,8.40
2022-11-24T20:18:42.491Z,8.60
2022-11-24T20:21:12.798Z,7.45
2022-11-24T20:23:40.629Z,5.15
2022-11-24T20:26:12.757Z,4.50
2022-11-24T20:28:40.195Z,7.18
2022-11-24T20:31:13.112Z,6.03
2022-11-24T20:33:41.031Z,7.45
2022-11-24T20:36:16.812Z,14.20
2022-11-24T20:38:44.805Z,7.72
2022-11-24T20:41:26.866Z,3.35
2022-11-24T20:43:54.823Z,7.65
2022-11-24T20:46:24.358Z,6.00
2022-11-24T20:48:52.806Z,8.70
2022-11-24T20:51:25.594Z,7.28
2022-11-24T20:53:55.403Z,4.40
2022-11-24T20:56:24.807Z,5.22
2022-11-24T20:58:52.269Z,6.88
2022-11-24T21:01:21.974Z,8.18
2022-11-24T21:03:53.418Z,5.57
2022-11-24T21:08:47.084Z,7.82
2022-11-24T21:11:15.230Z,12.20
2022-11-24T21:13:44.659Z,6.65
2022-11-24T21:16:16.458Z,7.70
2022-11-24T21:18:45.155Z,7.03
2022-11-24T21:21:13.146Z,11.18
2022-11-24T21:23:41.418Z,6.55
2022-11-24T21:26:14.883Z,6.55
2022-11-24T21:28:44.697Z,7.53
2022-11-24T21:31:15.167Z,5.82
2022-11-24T21:33:46.952Z,10.20
2022-11-24T21:36:15.774Z,8.05
2022-11-24T21:38:43.010Z,2.70
2022-11-24T21:41:11.907Z,6.38
2022-11-24T21:43:38.742Z,6.53
2022-11-24T21:46:13.529Z,8.63
2022-11-24T21:48:41.936Z,6.20
2022-11-24T21:51:13.601Z,8.93
2022-11-24T21:53:41.297Z,8.80
2022-11-24T21:56:12.994Z,8.02
2022-11-24T21:58:57.460Z,16.27
2022-11-24T22:01:27.607Z,10.93
2022-11-24T22:03:54.733Z,10.75
2022-11-24T22:06:21.511Z,8.75
2022-11-24T22:08:49.193Z,6.50
2022-11-24T22:11:24.793Z,19.60
2022-11-24T22:13:52.376Z,13.90
2022-11-24T22:16:21.888Z,14.18
2022-11-24T22:18:49.494Z,8.73
2022-11-24T22:21:18.617Z,11.50
2022-11-24T22:23:45.822Z,17.00
2022-11-24T22:26:18.436Z,16.60
2022-11-24T22:28:45.822Z,10.50
2022-11-24T22:31:15.861Z,12.98
2022-11-24T22:33:46.499Z,17.42
2022-11-24T22:36:14.759Z,16.53
2022-11-24T22:38:42.324Z,11.88
2022-11-24T22:41:14.293Z,14.77
2022-11-24T22:43:42.839Z,10.43
2022-11-24T22:46:14.916Z,17.85
2022-11-24T22:48:42.299Z,15.57
2022-11-24T22:51:14.957Z,10.20
2022-11-24T22:53:42.622Z,17.67
2022-11-24T22:56:11.294Z,15.52
2022-11-24T22:58:39.638Z,16.23
2022-11-24T23:01:08.623Z,15.57
2022-11-24T23:03:36.483Z,23.27
2022-11-24T23:06:05.888Z,13.07
2022-11-24T23:08:34.307Z,18.70
2022-11-24T23:11:16.753Z,16.23
2022-11-24T23:13:44.270Z,13.80
2022-11-24T23:16:16.646Z,13.80
2022-11-24T23:18:44.874Z,10.93
2022-11-24T23:21:38.495Z,15.65
2022-11-24T23:24:06.554Z,13.77
2022-11-24T23:26:35.929Z,14.35
2022-11-24T23:29:03.453Z,11.90
2022-11-24T23:31:30.485Z,11.07
2022-11-24T23:34:02.559Z,10.32
2022-11-24T23:36:30.134Z,12.25
2022-11-24T23:39:00.978Z,5.10
2022-11-24T23:41:30.374Z,8.20
2022-11-24T23:43:57.164Z,10.60
2022-11-24T23:46:26.064Z,6.30
2022-11-24T23:48:53.941Z,9.77
2022-11-24T23:51:22.028Z,5.55
2022-11-24T23:53:49.526Z,11.38
2022-11-24T23:56:19.393Z,5.50
2022-11-24T23:58:46.261Z,8.25
